Time;durP1;ratioP1;P1;durP2;ratioP2;P2;SDS_P1;SDS_P2;PMS_P1;PMS_P2;Temp;Humidity;BMP_temperature;BMP_pressure;BME280_temperature;BME280_humidity;BME280_pressure;Samples;Min_cycle;Max_cycle;Signal;HPM_P1;HPM_P2
2022/12/26 00:03:04;;;;;;;12.05;6.78;;;;;;;6.53;100.00;98998.47;5051675;28;20060;-68
2022/12/26 00:05:58;;;;;;;12.48;7.28;;;;;;;6.48;100.00;98990.06;5053921;28;20458;-67
2022/12/26 00:08:49;;;;;;;12.43;6.85;;;;;;;6.48;100.00;98990.91;5048667;28;20045;-68
2022/12/26 00:11:34;;;;;;;13.30;7.70;;;;;;;6.62;100.00;98981.59;5045322;28;20139;-68
2022/12/26 00:14:19;;;;;;;11.90;7.18;;;;;;;6.61;100.00;98982.50;5052545;28;20048;-67
2022/12/26 00:17:03;;;;;;;11.48;7.35;;;;;;;6.51;100.00;98969.91;5053377;28;20049;-68
2022/12/26 00:19:48;;;;;;;10.68;6.55;;;;;;;6.42;100.00;98975.56;5053749;28;20052;-68
2022/12/26 00:22:33;;;;;;;16.08;6.80;;;;;;;6.51;100.00;98982.94;5053466;28;20099;-67
2022/12/26 00:25:18;;;;;;;9.95;6.53;;;;;;;6.65;100.00;98991.84;5053441;28;20048;-68
2022/12/26 00:28:02;;;;;;;11.80;7.75;;;;;;;6.77;100.00;98998.22;5052171;28;20064;-68
2022/12/26 00:30:47;;;;;;;11.40;7.07;;;;;;;6.71;100.00;99001.97;5041324;28;20091;-67
2022/12/26 00:33:34;;;;;;;11.85;7.00;;;;;;;6.53;100.00;99006.28;5051844;28;20513;-67
2022/12/26 00:36:22;;;;;;;13.10;7.75;;;;;;;6.73;100.00;99004.47;5053190;28;20051;-68
2022/12/26 00:39:07;;;;;;;14.00;7.50;;;;;;;6.65;100.00;98986.63;5052239;28;20041;-67
2022/12/26 00:41:52;;;;;;;13.43;7.03;;;;;;;6.52;100.00;98981.19;5052028;28;20049;-67
2022/12/26 00:44:36;;;;;;;10.30;6.50;;;;;;;6.41;100.00;98976.50;5050777;28;20075;-68
2022/12/26 00:47:21;;;;;;;11.00;7.00;;;;;;;6.40;100.00;99001.69;5032681;28;20485;-68
2022/12/26 00:50:06;;;;;;;14.07;7.68;;;;;;;6.48;100.00;99006.50;5041324;28;20136;-68
2022/12/26 00:52:51;;;;;;;12.27;7.07;;;;;;;6.60;100.00;99012.03;5052991;28;20124;-69
2022/12/26 00:55:35;;;;;;;10.63;6.93;;;;;;;6.57;100.00;99030.41;5052934;28;20056;-67
2022/12/26 00:58:21;;;;;;;13.30;7.55;;;;;;;6.66;100.00;99029.97;5059045;28;20080;-68
2022/12/26 01:01:08;;;;;;;10.75;6.18;;;;;;;6.63;100.00;99030.13;5079946;28;20087;-69
2022/12/26 01:03:53;;;;;;;10.95;7.50;;;;;;;6.52;100.00;99039.31;5052487;28;20557;-69
2022/12/26 01:06:38;;;;;;;11.38;7.53;;;;;;;6.66;100.00;99029.97;5052659;28;20135;-68
2022/12/26 01:09:23;;;;;;;15.57;8.93;;;;;;;6.59;100.00;99026.00;5052370;28;20041;-68
2022/12/26 01:12:08;;;;;;;13.32;7.63;;;;;;;6.59;100.00;99042.47;5062327;28;20052;-67
2022/12/26 01:14:57;;;;;;;15.02;8.10;;;;;;;6.55;100.00;99040.91;5045479;28;20052;-69
2022/12/26 01:17:43;;;;;;;10.80;6.78;;;;;;;6.65;100.00;99023.09;5051003;28;20053;-68
2022/12/26 01:20:29;;;;;;;15.88;8.40;;;;;;;6.57;100.00;99025.22;5051291;28;20041;-68
2022/12/26 01:23:14;;;;;;;22.23;12.05;;;;;;;6.48;100.00;99027.34;5052473;28;20063;-68
2022/12/26 01:25:59;;;;;;;16.52;9.02;;;;;;;6.49;100.00;99013.41;5039880;28;20553;-67
2022/12/26 01:28:44;;;;;;;14.82;7.93;;;;;;;6.47;100.00;99020.44;5051908;28;20467;-67
2022/12/26 01:31:30;;;;;;;14.02;7.35;;;;;;;6.68;100.00;99042.91;5050217;28;20473;-67
2022/12/26 01:34:15;;;;;;;13.85;8.05;;;;;;;6.84;100.00;99022.22;5051335;28;20037;-68
2022/12/26 01:37:00;;;;;;;12.73;7.85;;;;;;;6.80;100.00;99031.06;5045328;28;20138;-68
2022/12/26 01:39:44;;;;;;;15.23;9.55;;;;;;;6.72;100.00;99028.84;5037881;28;20513;-68
2022/12/26 01:42:38;;;;;;;13.05;8.55;;;;;;;6.70;100.00;99028.06;5051628;28;20055;-68
2022/12/26 01:45:29;;;;;;;18.70;9.93;;;;;;;6.67;100.00;99015.19;5051430;28;20045;-67
2022/12/26 01:48:16;;;;;;;16.57;8.93;;;;;;;6.52;100.00;98987.25;5036463;28;20491;-67
2022/12/26 01:51:04;;;;;;;14.90;8.70;;;;;;;6.36;100.00;98989.75;5051275;28;20412;-67
2022/12/26 01:53:53;;;;;;;15.23;9.40;;;;;;;6.46;100.00;99016.19;5051690;28;20498;-67
2022/12/26 01:56:41;;;;;;;14.00;8.27;;;;;;;6.36;100.00;99007.97;5039959;28;20041;-68
2022/12/26 01:59:29;;;;;;;13.23;8.57;;;;;;;6.30;100.00;99000.41;5051725;28;20102;-66
2022/12/26 02:02:19;;;;;;;13.75;8.25;;;;;;;6.28;100.00;99005.69;5051287;28;20141;-67
2022/12/26 02:08:20;;;;;;;17.15;8.90;;;;;;;6.22;100.00;99007.75;5051206;28;20053;-67
2022/12/26 02:11:16;;;;;;;15.38;9.95;;;;;;;6.23;100.00;99010.28;5050161;28;20049;-67
2022/12/26 02:14:04;;;;;;;16.30;9.32;;;;;;;6.10;100.00;99010.03;5078233;28;20052;-68
2022/12/26 02:16:49;;;;;;;21.40;11.23;;;;;;;6.19;100.00;99013.94;5051375;28;20049;-67
2022/12/26 02:19:46;;;;;;;17.17;10.35;;;;;;;6.15;100.00;99013.22;5038872;28;20056;-66
2022/12/26 02:23:07;;;;;;;18.75;10.98;;;;;;;6.19;100.00;99021.75;5049993;28;20480;-67
2022/12/26 02:26:20;;;;;;;18.25;10.73;;;;;;;6.23;100.00;99020.69;5038134;28;20136;-67
2022/12/26 02:29:07;;;;;;;17.40;10.93;;;;;;;6.13;100.00;99002.06;5016107;28;20063;-68
2022/12/26 02:32:19;;;;;;;18.95;10.32;;;;;;;6.19;100.00;99005.28;5025543;28;20064;-68
2022/12/26 02:35:16;;;;;;;21.20;11.55;;;;;;;6.21;100.00;99012.13;5025219;28;20041;-68
2022/12/26 02:38:20;;;;;;;16.02;10.27;;;;;;;6.15;100.00;99015.00;5028320;28;20128;-68
2022/12/26 02:41:13;;;;;;;19.17;11.07;;;;;;;6.20;100.00;99013.00;5028368;28;20131;-66
2022/12/26 02:47:26;;;;;;;19.17;11.13;;;;;;;6.13;100.00;99006.41;5028192;28;19920;-67
2022/12/26 03:19:08;;;;;;;20.15;10.75;;;;;;;6.31;100.00;99016.88;5050133;28;20037;-68
2022/12/26 03:21:56;;;;;;;20.65;12.02;;;;;;;6.32;100.00;99024.63;5049858;28;20045;-68
2022/12/26 03:26:38;;;;;;;19.92;11.55;;;;;;;6.30;100.00;99017.81;5050140;28;20041;-68
2022/12/26 03:27:45;;;;;;;17.50;10.93;;;;;;;6.23;100.00;99022.44;5039420;28;20087;-68
2022/12/26 03:30:48;;;;;;;20.38;11.65;;;;;;;6.26;100.00;99035.31;5050206;28;20051;-68
2022/12/26 03:36:58;;;;;;;19.98;11.98;;;;;;;6.34;100.00;99040.16;5049405;28;20040;-68
2022/12/26 04:44:17;;;;;;;21.48;12.75;;;;;;;6.21;100.00;99042.47;5049421;28;20132;-68
2022/12/26 04:47:02;;;;;;;18.92;11.60;;;;;;;6.17;100.00;99031.38;5049086;28;20045;-67
2022/12/26 04:52:59;;;;;;;20.75;12.80;;;;;;;6.13;100.00;99035.03;5042632;28;20041;-67
2022/12/26 04:55:43;;;;;;;23.10;12.50;;;;;;;6.13;100.00;99043.69;5038953;28;20045;-68
2022/12/26 04:58:29;;;;;;;18.42;11.27;;;;;;;6.23;100.00;99049.31;5038539;28;20053;-67
2022/12/26 05:10:32;;;;;;;18.98;11.90;;;;;;;6.34;100.00;99054.03;5051530;28;20048;-68
2022/12/26 05:13:17;;;;;;;19.15;10.55;;;;;;;6.40;100.00;99051.13;5053042;28;20049;-67
2022/12/26 05:28:41;;;;;;;18.33;11.30;;;;;;;6.45;100.00;99050.91;5052048;28;20098;-67
2022/12/26 05:31:25;;;;;;;19.58;11.18;;;;;;;6.47;100.00;99058.66;5052084;28;20045;-67
2022/12/26 05:34:12;;;;;;;16.65;10.90;;;;;;;6.40;100.00;99043.31;5042187;28;20041;-67
2022/12/26 05:36:58;;;;;;;20.35;11.90;;;;;;;6.37;100.00;99032.19;5051841;28;20044;-67
2022/12/26 05:39:43;;;;;;;20.25;11.68;;;;;;;6.19;100.00;99039.94;5052030;28;20407;-67
2022/12/26 05:42:27;;;;;;;17.77;10.90;;;;;;;6.30;100.00;99041.22;5051857;28;20041;-67
2022/12/26 05:45:12;;;;;;;17.85;10.07;;;;;;;6.38;100.00;99059.94;5051495;28;20079;-67
2022/12/26 05:47:59;;;;;;;19.67;11.35;;;;;;;6.46;100.00;99065.63;5041679;28;20132;-67
2022/12/26 05:50:44;;;;;;;18.85;10.98;;;;;;;6.36;100.00;99065.22;5050481;28;20048;-68
2022/12/26 05:53:29;;;;;;;18.52;11.52;;;;;;;6.26;100.00;99064.78;5050623;28;20041;-68
2022/12/26 05:56:16;;;;;;;20.40;11.70;;;;;;;6.21;100.00;99066.75;5052322;28;20159;-67
2022/12/26 05:59:00;;;;;;;20.48;11.55;;;;;;;6.21;100.00;99061.56;5039872;28;20499;-68
2022/12/26 06:01:45;;;;;;;18.20;11.32;;;;;;;6.23;100.00;99064.06;5051343;28;20045;-68
2022/12/26 06:04:32;;;;;;;15.35;10.65;;;;;;;6.22;100.00;99065.81;5051658;28;20072;-67
2022/12/26 06:07:17;;;;;;;19.73;11.70;;;;;;;6.12;100.00;99065.41;5041569;28;20041;-67
2022/12/26 06:10:01;;;;;;;16.88;11.27;;;;;;;6.06;100.00;99064.81;5051480;28;20053;-67
2022/12/26 06:12:46;;;;;;;17.23;10.48;;;;;;;6.03;100.00;99058.84;5050092;28;20041;-67
2022/12/26 06:15:30;;;;;;;19.38;11.60;;;;;;;6.00;100.00;99055.53;5051367;28;20048;-67
2022/12/26 06:18:15;;;;;;;17.55;11.20;;;;;;;6.07;100.00;99063.94;5051479;28;20041;-69
2022/12/26 06:21:09;;;;;;;18.20;11.32;;;;;;;6.08;100.00;99053.47;5051101;28;20068;-67
2022/12/26 06:23:54;;;;;;;17.42;10.52;;;;;;;6.07;100.00;99056.13;5050867;28;20124;-67
2022/12/26 06:26:39;;;;;;;22.30;11.45;;;;;;;5.96;100.00;99061.75;5050136;28;20059;-68
2022/12/26 06:29:24;;;;;;;19.33;10.82;;;;;;;5.84;100.00;99052.78;5048083;28;20037;-67
2022/12/26 06:32:09;;;;;;;16.15;9.88;;;;;;;5.91;100.00;99048.97;5049616;28;20045;-67
2022/12/26 06:34:54;;;;;;;16.48;9.65;;;;;;;5.88;100.00;99034.38;5051039;28;20075;-68
2022/12/26 06:37:38;;;;;;;15.18;9.82;;;;;;;5.89;100.00;99045.63;5051282;28;20056;-68
2022/12/26 06:40:23;;;;;;;17.90;10.38;;;;;;;6.05;100.00;99053.59;5051244;28;20048;-67
2022/12/26 06:43:08;;;;;;;17.60;10.27;;;;;;;6.09;100.00;99047.34;5039902;28;20049;-67
2022/12/26 06:45:57;;;;;;;16.20;9.80;;;;;;;6.11;100.00;99057.66;5050601;28;20063;-67
2022/12/26 06:48:42;;;;;;;17.60;10.60;;;;;;;6.03;100.00;99055.38;5050798;28;20507;-67
2022/12/26 06:51:28;;;;;;;17.73;9.35;;;;;;;6.04;100.00;99059.66;5050680;28;20079;-67
2022/12/26 06:54:13;;;;;;;13.63;8.48;;;;;;;6.22;100.00;99067.59;5039106;28;20044;-68
2022/12/26 06:56:57;;;;;;;11.82;7.50;;;;;;;6.14;100.00;99066.19;5049140;28;20449;-68
2022/12/26 06:59:42;;;;;;;12.75;8.05;;;;;;;6.09;100.00;99069.94;5050636;28;20041;-68
2022/12/26 07:02:27;;;;;;;14.98;9.63;;;;;;;6.06;100.00;99076.09;5040176;28;20079;-68
2022/12/26 07:05:11;;;;;;;12.05;8.07;;;;;;;6.11;100.00;99083.69;5049471;28;20067;-68
2022/12/26 07:07:56;;;;;;;13.32;8.00;;;;;;;6.13;100.00;99082.72;5048698;28;20047;-67
2022/12/26 07:10:41;;;;;;;17.20;9.15;;;;;;;6.15;100.00;99077.44;5034864;28;20558;-67
2022/12/26 07:13:26;;;;;;;14.85;8.48;;;;;;;6.23;100.00;99082.28;5049802;28;20040;-66
2022/12/26 07:16:11;;;;;;;15.57;9.00;;;;;;;6.25;100.00;99078.69;5037571;28;20503;-67
2022/12/26 07:18:57;;;;;;;12.88;8.05;;;;;;;6.29;100.00;99071.59;5050252;28;20041;-67
2022/12/26 07:21:42;;;;;;;14.75;9.18;;;;;;;6.34;100.00;99081.78;5035235;28;20048;-68
2022/12/26 07:24:27;;;;;;;14.43;9.43;;;;;;;6.26;100.00;99083.00;5038215;28;20499;-67
2022/12/26 07:27:11;;;;;;;16.55;8.98;;;;;;;6.31;100.00;99092.34;5049816;28;20033;-67
2022/12/26 07:29:56;;;;;;;15.93;9.93;;;;;;;6.30;100.00;99101.06;5049016;28;20040;-67
2022/12/26 07:32:40;;;;;;;14.45;8.50;;;;;;;6.26;100.00;99100.38;5050451;28;20061;-67
2022/12/26 07:35:25;;;;;;;17.50;9.88;;;;;;;6.34;100.00;99100.00;5049967;28;20069;-67
2022/12/26 07:38:11;;;;;;;17.27;9.75;;;;;;;6.43;100.00;99103.97;5049982;28;20048;-67
2022/12/26 07:40:56;;;;;;;16.90;9.45;;;;;;;6.44;100.00;99113.44;5050060;28;20033;-67
2022/12/26 07:43:41;;;;;;;15.93;9.60;;;;;;;6.48;100.00;99109.81;5049179;28;20045;-67
2022/12/26 07:46:26;;;;;;;15.35;9.93;;;;;;;6.64;100.00;99110.75;5049759;28;20037;-67
2022/12/26 07:49:11;;;;;;;18.95;10.20;;;;;;;6.50;100.00;99120.97;5049586;28;20049;-67
2022/12/26 07:51:56;;;;;;;15.30;9.65;;;;;;;6.46;100.00;99117.69;5049942;28;20487;-68
2022/12/26 07:54:41;;;;;;;16.48;10.13;;;;;;;6.46;100.00;99127.25;5048896;28;20049;-67
2022/12/26 07:57:26;;;;;;;16.95;9.50;;;;;;;6.60;100.00;99126.59;5038207;28;20140;-67
2022/12/26 08:00:10;;;;;;;14.63;9.32;;;;;;;6.67;100.00;99132.38;5049750;28;20090;-68
2022/12/26 08:02:58;;;;;;;16.95;9.07;;;;;;;6.67;100.00;99129.75;5049537;28;20500;-68
2022/12/26 08:05:49;;;;;;;16.40;9.23;;;;;;;6.72;100.00;99135.59;5049911;28;20045;-67
2022/12/26 08:08:33;;;;;;;15.47;10.80;;;;;;;6.66;100.00;99141.94;5042032;28;20049;-67
2022/12/26 08:11:21;;;;;;;15.98;9.85;;;;;;;6.75;100.00;99151.94;5049660;28;20049;-68
2022/12/26 08:14:08;;;;;;;20.83;11.73;;;;;;;6.75;100.00;99153.69;5049490;28;20045;-67
2022/12/26 08:16:53;;;;;;;16.70;11.13;;;;;;;6.72;100.00;99148.63;5048819;28;20496;-67
2022/12/26 08:19:38;;;;;;;16.35;9.93;;;;;;;6.65;100.00;99150.66;5038835;28;20465;-67
2022/12/26 08:22:23;;;;;;;16.98;11.18;;;;;;;6.71;100.00;99160.78;5034720;28;20037;-68
2022/12/26 08:25:08;;;;;;;15.70;10.63;;;;;;;6.94;100.00;99158.03;5047012;28;20045;-68
2022/12/26 08:27:53;;;;;;;17.80;11.07;;;;;;;6.73;100.00;99158.97;5043226;28;20056;-68
2022/12/26 08:30:42;;;;;;;16.75;10.20;;;;;;;6.82;100.00;99157.69;5053095;28;20509;-67
2022/12/26 08:33:27;;;;;;;19.33;10.88;;;;;;;6.96;100.00;99151.84;5052276;28;20037;-68
2022/12/26 08:36:12;;;;;;;18.17;12.15;;;;;;;6.72;100.00;99159.91;5052342;28;20041;-68
2022/12/26 08:38:58;;;;;;;19.27;10.57;;;;;;;6.97;100.00;99168.31;5042189;28;20045;-68
2022/12/26 08:41:42;;;;;;;22.52;13.50;;;;;;;7.07;100.00;99156.53;5052325;28;20071;-68
2022/12/26 08:44:27;;;;;;;18.45;11.20;;;;;;;7.15;100.00;99164.81;5053378;28;20098;-69
2022/12/26 08:47:12;;;;;;;18.42;11.88;;;;;;;7.08;100.00;99160.00;5052766;28;20132;-67
2022/12/26 08:49:57;;;;;;;18.30;11.02;;;;;;;7.02;100.00;99169.78;5053615;28;20045;-68
2022/12/26 08:52:42;;;;;;;20.10;12.48;;;;;;;7.01;100.00;99157.69;5053132;28;20072;-68
2022/12/26 08:55:27;;;;;;;23.58;12.20;;;;;;;7.00;100.00;99149.94;5051871;28;20037;-67
2022/12/26 08:58:12;;;;;;;17.83;11.25;;;;;;;6.97;100.00;99165.72;5051242;28;20048;-66
2022/12/26 09:01:06;;;;;;;17.35;11.98;;;;;;;7.06;100.00;99167.03;5051857;28;20045;-67
2022/12/26 09:03:57;;;;;;;21.55;13.07;;;;;;;6.98;100.00;99175.22;5040636;28;20041;-68
2022/12/26 09:06:41;;;;;;;20.85;11.75;;;;;;;7.10;100.00;99164.19;5051269;28;20037;-67
2022/12/26 09:09:26;;;;;;;20.15;11.90;;;;;;;7.29;100.00;99162.47;5052277;28;20065;-68
2022/12/26 09:12:11;;;;;;;17.58;11.40;;;;;;;7.49;100.00;99177.97;5051880;28;20045;-68
2022/12/26 09:14:57;;;;;;;18.05;11.38;;;;;;;7.35;100.00;99177.81;5051266;28;20152;-68
2022/12/26 09:17:42;;;;;;;19.45;12.40;;;;;;;7.23;100.00;99171.44;5051030;28;20141;-67
2022/12/26 09:20:27;;;;;;;21.98;13.25;;;;;;;7.17;100.00;99167.34;5050782;28;20535;-69
2022/12/26 09:23:14;;;;;;;22.63;13.05;;;;;;;6.99;100.00;99169.94;5052335;28;20048;-67
2022/12/26 09:26:18;;;;;;;24.17;15.20;;;;;;;6.89;100.00;99151.28;5040416;28;20033;-68
2022/12/26 09:29:03;;;;;;;22.27;13.05;;;;;;;6.96;100.00;99151.84;5051064;28;20153;-68
2022/12/26 09:31:48;;;;;;;21.58;13.65;;;;;;;7.02;100.00;99163.72;5051007;28;20473;-68
2022/12/26 09:34:33;;;;;;;28.90;15.45;;;;;;;6.88;100.00;99153.97;5052035;28;20041;-67
2022/12/26 09:37:17;;;;;;;27.13;14.77;;;;;;;6.94;100.00;99138.03;5040292;28;20068;-67
2022/12/26 09:40:03;;;;;;;26.48;15.55;;;;;;;7.14;100.00;99150.13;5050612;28;20037;-68
2022/12/26 09:43:06;;;;;;;27.48;15.82;;;;;;;7.24;100.00;99144.47;5051721;28;20051;-70
2022/12/26 09:46:05;;;;;;;26.00;14.68;;;;;;;7.18;100.00;99142.97;5052439;28;20427;-68
2022/12/26 09:49:30;;;;;;;28.38;14.65;;;;;;;6.98;100.00;99137.00;5051674;28;20330;-69
2022/12/26 09:52:20;;;;;;;24.92;13.85;;;;;;;7.41;100.00;99140.19;5081891;28;20068;-68
2022/12/26 09:55:37;;;;;;;31.70;15.77;;;;;;;7.41;100.00;99137.56;5050514;28;20087;-68
2022/12/26 09:58:22;;;;;;;21.75;12.55;;;;;;;7.53;100.00;99136.97;5015570;28;20156;-68
2022/12/26 10:01:14;;;;;;;22.70;12.98;;;;;;;7.79;100.00;99124.34;5046130;28;20037;-68
2022/12/26 10:03:59;;;;;;;;;;;;;;;7.79;100.00;99118.28;5021219;28;20496;-68
2022/12/26 10:06:51;;;;;;;23.10;12.68;;;;;;;7.78;100.00;99135.72;5048836;28;19928;-68
2022/12/26 10:09:54;;;;;;;;;;;;;;;7.80;100.00;99117.38;5034127;28;20040;-69
2022/12/26 10:12:59;;;;;;;24.73;14.30;;;;;;;7.60;100.00;99120.09;5046778;28;20011;-68
2022/12/26 10:15:52;;;;;;;29.02;16.63;;;;;;;7.41;100.00;99117.53;5035508;28;20045;-68
2022/12/26 10:19:00;;;;;;;29.42;16.42;;;;;;;7.46;100.00;99112.13;5048553;28;20049;-68
2022/12/26 10:22:19;;;;;;;35.50;18.00;;;;;;;7.72;100.00;99112.56;5048833;28;20527;-68
2022/12/26 10:25:15;;;;;;;29.27;16.98;;;;;;;7.72;100.00;99107.34;4969929;28;20421;-68
2022/12/26 10:28:02;;;;;;;24.50;14.43;;;;;;;7.52;100.00;99112.63;4970095;28;20075;-69
2022/12/26 10:30:49;;;;;;;21.65;13.18;;;;;;;7.80;100.00;99110.38;4970226;28;20062;-69
2022/12/26 10:33:51;;;;;;;24.45;15.82;;;;;;;7.70;100.00;99101.38;4955839;28;20078;-68
2022/12/26 10:37:08;;;;;;;26.70;15.37;;;;;;;7.73;100.00;99104.66;4989302;28;20054;-68
2022/12/26 10:40:38;;;;;;;25.00;14.82;;;;;;;7.75;100.00;99094.16;4976073;28;20057;-69
2022/12/26 10:43:27;;;;;;;26.13;15.40;;;;;;;7.50;100.00;99098.84;4970220;28;20066;-68
2022/12/26 10:46:30;;;;;;;29.65;17.13;;;;;;;7.82;100.00;99098.13;4958275;28;20066;-68
2022/12/26 10:49:19;;;;;;;29.60;17.05;;;;;;;7.86;100.00;99099.66;4969395;28;20069;-68
2022/12/26 10:52:04;;;;;;;26.05;15.48;;;;;;;7.93;100.00;99100.16;4969304;28;20058;-68
2022/12/26 10:54:54;;;;;;;30.40;18.38;;;;;;;8.05;100.00;99092.59;4969832;28;20057;-69
2022/12/26 10:57:41;;;;;;;29.92;15.70;;;;;;;8.11;100.00;99085.31;4946016;28;20530;-68
2022/12/26 11:00:27;;;;;;;27.23;15.30;;;;;;;7.99;100.00;99086.81;4955422;28;20125;-68
2022/12/26 11:03:14;;;;;;;26.90;14.75;;;;;;;8.01;100.00;99086.72;4968706;28;20055;-68
2022/12/26 11:06:04;;;;;;;28.25;15.82;;;;;;;8.16;100.00;99089.44;4978527;28;20121;-69
2022/12/26 11:08:50;;;;;;;27.73;15.18;;;;;;;8.67;100.00;99091.94;4959138;28;20074;-69
2022/12/26 11:11:44;;;;;;;23.45;14.25;;;;;;;8.92;100.00;99090.56;4958103;28;20065;-68
2022/12/26 11:14:41;;;;;;;23.05;13.50;;;;;;;9.01;100.00;99085.75;4955659;28;20506;-70
2022/12/26 11:17:30;;;;;;;20.90;13.20;;;;;;;9.06;100.00;99088.91;5028469;28;20044;-69
2022/12/26 11:20:16;;;;;;;19.73;12.07;;;;;;;9.23;100.00;99086.22;5067946;28;20427;-69
2022/12/26 11:23:12;;;;;;;21.77;12.55;;;;;;;9.35;100.00;99089.84;5053737;28;20063;-69
2022/12/26 11:25:59;;;;;;;22.83;13.20;;;;;;;9.53;100.00;99092.31;5055475;28;20052;-69
2022/12/26 11:28:48;;;;;;;26.35;15.10;;;;;;;9.34;100.00;99088.19;5042692;28;20056;-67
2022/12/26 11:31:53;;;;;;;24.10;13.82;;;;;;;9.49;100.00;99089.06;5058286;28;20143;-68
2022/12/26 11:34:44;;;;;;;21.90;11.85;;;;;;;9.74;100.00;99077.13;5067859;28;20135;-69
2022/12/26 11:37:35;;;;;;;20.85;13.18;;;;;;;9.40;99.97;99073.91;5050904;28;20048;-69
2022/12/26 11:40:26;;;;;;;20.30;12.55;;;;;;;9.61;99.39;99078.81;5041636;28;20069;-69
2022/12/26 11:43:16;;;;;;;19.73;11.93;;;;;;;9.52;98.69;99077.56;5024116;28;20045;-71
2022/12/26 11:46:01;;;;;;;17.55;11.90;;;;;;;9.10;100.00;99080.00;5076883;28;20111;-70
2022/12/26 11:48:48;;;;;;;20.30;12.15;;;;;;;9.29;100.00;99068.44;5048855;28;20506;-70
2022/12/26 11:51:45;;;;;;;21.48;13.45;;;;;;;9.02;100.00;99083.06;5049049;28;20128;-70
2022/12/26 11:54:35;;;;;;;20.63;11.82;;;;;;;8.77;100.00;99062.69;5048913;28;20052;-70
2022/12/26 11:57:27;;;;;;;22.30;12.93;;;;;;;9.12;100.00;99058.06;5037271;28;20048;-70
2022/12/26 12:00:23;;;;;;;18.40;12.07;;;;;;;8.91;100.00;99056.69;5051706;28;20045;-69
2022/12/26 12:03:21;;;;;;;21.35;12.13;;;;;;;8.78;100.00;99043.47;5039178;28;20049;-70
2022/12/26 12:06:10;;;;;;;19.63;12.77;;;;;;;8.77;100.00;99042.63;5053807;28;20048;-69
2022/12/26 12:09:03;;;;;;;19.60;12.90;;;;;;;8.58;100.00;99037.59;5043246;28;20471;-69
2022/12/26 12:11:54;;;;;;;16.65;10.77;;;;;;;8.76;100.00;99033.13;5053421;28;20412;-70
2022/12/26 12:14:45;;;;;;;20.02;12.65;;;;;;;8.86;100.00;99036.06;5040005;28;20045;-70
2022/12/26 12:17:50;;;;;;;20.80;12.50;;;;;;;8.93;100.00;99036.53;5052336;28;20120;-70
2022/12/26 12:20:58;;;;;;;18.67;11.95;;;;;;;8.85;100.00;99040.44;5052214;28;20435;-69
2022/12/26 12:23:49;;;;;;;19.63;12.43;;;;;;;8.64;100.00;99045.09;5052123;28;20169;-69
2022/12/26 12:27:20;;;;;;;20.17;13.73;;;;;;;8.63;100.00;99046.03;5038415;28;20123;-69
2022/12/26 12:30:20;;;;;;;20.50;13.47;;;;;;;8.31;100.00;99035.56;5031017;28;20060;-68
2022/12/26 12:33:28;;;;;;;18.10;13.20;;;;;;;8.41;100.00;99044.56;5029590;28;20104;-69
2022/12/26 12:36:21;;;;;;;16.33;11.07;;;;;;;8.49;100.00;99045.00;5024184;28;20099;-70
2022/12/26 12:39:19;;;;;;;18.05;11.90;;;;;;;8.36;100.00;99055.28;5024327;28;20508;-70
2022/12/26 12:42:15;;;;;;;19.27;12.60;;;;;;;8.43;100.00;99058.41;5023046;28;20056;-68
2022/12/26 12:45:18;;;;;;;17.35;11.20;;;;;;;8.37;100.00;99061.34;5014363;28;20136;-69
2022/12/26 12:48:15;;;;;;;17.20;11.50;;;;;;;8.63;100.00;99054.69;5021060;28;20475;-69
2022/12/26 12:51:16;;;;;;;15.77;11.07;;;;;;;8.78;100.00;99051.31;5011104;28;20420;-68
2022/12/26 12:54:34;;;;;;;20.15;11.48;;;;;;;8.60;100.00;99056.66;5029829;28;20045;-69
2022/12/26 12:57:40;;;;;;;18.58;12.07;;;;;;;8.59;100.00;99050.59;5017735;28;20159;-68
2022/12/26 13:00:32;;;;;;;18.45;12.38;;;;;;;8.70;100.00;99043.94;4990259;28;20053;-68
2022/12/26 13:03:26;;;;;;;17.98;10.80;;;;;;;8.37;100.00;99043.06;5039645;28;20060;-70
2022/12/26 13:06:17;;;;;;;15.27;11.27;;;;;;;8.38;100.00;99048.22;5051171;28;20072;-70
2022/12/26 13:09:12;;;;;;;18.17;11.80;;;;;;;8.31;100.00;99041.63;5023785;28;20045;-69
2022/12/26 13:12:17;;;;;;;16.20;10.75;;;;;;;8.42;100.00;99040.19;5043206;28;20045;-68
2022/12/26 13:15:08;;;;;;;18.02;11.93;;;;;;;8.49;100.00;99041.53;5043241;28;20051;-69
2022/12/26 13:18:02;;;;;;;15.55;10.10;;;;;;;8.54;100.00;99043.88;5052870;28;20045;-69
2022/12/26 13:21:11;;;;;;;17.10;11.45;;;;;;;8.54;100.00;99041.28;5051032;28;20428;-69
2022/12/26 13:24:25;;;;;;;19.08;11.02;;;;;;;8.73;100.00;99038.53;5052562;28;20072;-69
2022/12/26 13:27:19;;;;;;;19.00;12.35;;;;;;;8.83;100.00;99047.50;5050861;28;20041;-69
2022/12/26 13:30:15;;;;;;;19.45;12.07;;;;;;;8.67;100.00;99052.75;5051681;28;20047;-69
2022/12/26 13:33:01;;;;;;;17.38;10.57;;;;;;;9.02;100.00;99046.47;5051828;28;20049;-69
2022/12/26 13:35:55;;;;;;;18.90;11.38;;;;;;;9.04;99.62;99033.31;5039884;28;20140;-69
2022/12/26 13:38:55;;;;;;;18.95;11.73;;;;;;;8.60;100.00;99030.53;5051094;28;20091;-69
2022/12/26 13:45:40;;;;;;;16.52;11.43;;;;;;;8.20;100.00;99025.72;5030004;28;20544;-69
2022/12/26 13:48:25;;;;;;;16.25;10.13;;;;;;;7.94;100.00;99031.41;5023286;28;20053;-69
2022/12/26 13:51:41;;;;;;;19.20;11.38;;;;;;;8.01;100.00;99032.75;5019068;28;20092;-68
2022/12/26 13:54:27;;;;;;;18.30;11.43;;;;;;;8.30;100.00;99031.25;5019085;28;20042;-69
2022/12/26 13:57:31;;;;;;;18.35;11.82;;;;;;;8.21;100.00;99027.41;5029146;28;20484;-69
2022/12/26 14:00:58;;;;;;;17.48;11.43;;;;;;;8.17;100.00;99031.94;5011221;28;20048;-69
2022/12/26 14:03:53;;;;;;;18.20;12.23;;;;;;;8.26;100.00;99038.41;5028821;28;20046;-68
2022/12/26 14:07:15;;;;;;;18.00;12.07;;;;;;;8.03;100.00;99032.69;5015018;28;20045;-68
2022/12/26 14:10:29;;;;;;;17.08;10.75;;;;;;;7.89;100.00;99031.66;5028704;28;20073;-67
2022/12/26 14:13:50;;;;;;;17.25;10.80;;;;;;;8.01;100.00;99022.31;5019529;28;20493;-69
2022/12/26 14:16:42;;;;;;;18.45;10.95;;;;;;;8.00;100.00;99012.81;5015356;28;20106;-69
2022/12/26 14:19:48;;;;;;;;;;;;;;;8.06;100.00;99013.41;5029407;28;20132;-69
2022/12/26 14:22:33;;;;;;;20.27;11.43;;;;;;;7.98;100.00;99019.06;5050160;28;20287;-69
2022/12/26 14:25:36;;;;;;;17.83;10.95;;;;;;;8.11;100.00;99037.50;5049981;28;20047;-69
2022/12/26 14:28:59;;;;;;;17.05;10.52;;;;;;;7.96;100.00;99031.34;5051399;28;20041;-69
2022/12/26 14:31:46;;;;;;;;;;;;;;;7.97;100.00;99033.00;5050165;28;20049;-69
2022/12/26 14:34:44;;;;;;;17.58;10.48;;;;;;;7.91;100.00;99033.34;5050165;28;19967;-69
2022/12/26 14:37:54;;;;;;;17.20;11.18;;;;;;;7.47;100.00;99025.16;5040078;28;20037;-69
2022/12/26 14:41:01;;;;;;;16.17;10.77;;;;;;;7.49;100.00;99034.59;5040715;28;20045;-68
2022/12/26 14:43:46;;;;;;;16.88;11.27;;;;;;;7.51;100.00;99035.34;5049587;28;20379;-69
2022/12/26 14:46:30;;;;;;;20.20;11.20;;;;;;;7.37;100.00;99045.66;5050597;28;20086;-69
2022/12/26 14:49:21;;;;;;;14.23;10.02;;;;;;;7.33;100.00;99044.94;5049306;28;20044;-69
2022/12/26 14:52:24;;;;;;;14.82;10.35;;;;;;;7.35;100.00;99042.28;5035403;28;20400;-69
2022/12/26 14:55:46;;;;;;;14.60;10.20;;;;;;;7.27;100.00;99048.72;5049988;28;20064;-69
2022/12/26 14:58:30;;;;;;;16.80;11.20;;;;;;;7.27;100.00;99050.47;5049843;28;20102;-69
2022/12/26 15:01:16;;;;;;;16.60;11.05;;;;;;;7.15;100.00;99050.19;5050864;28;20053;-68
2022/12/26 15:04:04;;;;;;;18.23;10.68;;;;;;;7.10;100.00;99043.53;5038757;28;20036;-69
2022/12/26 15:07:11;;;;;;;15.75;10.68;;;;;;;7.06;100.00;99031.53;5050097;28;20060;-68
2022/12/26 15:10:15;;;;;;;16.95;11.27;;;;;;;7.00;100.00;99033.53;5050175;28;20438;-68
2022/12/26 15:13:28;;;;;;;22.00;13.07;;;;;;;7.01;100.00;99047.41;5037778;28;20079;-68
2022/12/26 15:16:28;;;;;;;21.50;13.25;;;;;;;6.96;100.00;99046.78;5049466;28;20047;-68
2022/12/26 15:19:15;;;;;;;17.45;11.55;;;;;;;6.96;100.00;99046.78;5049810;28;20438;-68
2022/12/26 15:22:31;;;;;;;18.42;12.20;;;;;;;6.97;100.00;99046.72;5035852;28;20045;-67
2022/12/26 15:25:44;;;;;;;20.48;12.48;;;;;;;6.82;100.00;99040.47;5049829;28;20045;-68
2022/12/26 15:28:51;;;;;;;18.25;11.70;;;;;;;6.82;100.00;99056.09;5049842;28;20055;-68